createdAt,value
2022-08-15T00:01:44.190Z,3.35
2022-08-15T00:04:33.541Z,3.60
2022-08-15T00:07:22.202Z,3.17
2022-08-15T00:11:01.952Z,2.70
2022-08-15T00:13:41.330Z,4.03
2022-08-15T00:16:33.760Z,3.38
2022-08-15T00:19:25.370Z,3.00
2022-08-15T00:22:18.205Z,3.53
2022-08-15T00:25:06.565Z,3.05
2022-08-15T00:27:56.895Z,3.00
2022-08-15T00:30:57.607Z,2.90
2022-08-15T00:33:46.504Z,3.20
2022-08-15T00:36:51.847Z,2.72
2022-08-15T00:39:41.770Z,3.78
2022-08-15T00:42:30.547Z,3.92
2022-08-15T00:45:21.246Z,4.78
2022-08-15T00:48:26.401Z,3.88
2022-08-15T00:51:17.054Z,4.30
2022-08-15T00:54:06.634Z,4.05
2022-08-15T00:56:56.091Z,4.47
2022-08-15T00:59:45.844Z,4.20
2022-08-15T01:02:43.598Z,3.60
2022-08-15T01:05:33.753Z,4.30
2022-08-15T01:08:30.172Z,4.47
2022-08-15T01:11:25.295Z,4.13
2022-08-15T01:14:56.682Z,3.88
2022-08-15T01:17:30.080Z,3.40
2022-08-15T01:20:24.988Z,4.40
2022-08-15T01:23:17.459Z,4.80
2022-08-15T01:26:38.437Z,4.18
2022-08-15T01:29:17.458Z,4.47
2022-08-15T01:32:05.302Z,4.35
2022-08-15T01:34:52.714Z,4.18
2022-08-15T01:37:57.545Z,4.20
2022-08-15T01:40:54.789Z,4.20
2022-08-15T01:43:54.902Z,3.95
2022-08-15T01:46:48.611Z,3.97
2022-08-15T01:49:43.925Z,3.20
2022-08-15T01:52:57.479Z,3.40
2022-08-15T01:55:53.353Z,2.95
2022-08-15T01:58:46.447Z,3.08
2022-08-15T02:01:42.134Z,3.15
2022-08-15T02:04:31.334Z,2.90
2022-08-15T02:07:26.919Z,2.60
2022-08-15T02:10:22.438Z,3.20
2022-08-15T02:13:15.148Z,2.38
2022-08-15T02:16:04.436Z,2.60
2022-08-15T02:18:52.477Z,2.85
2022-08-15T02:21:41.480Z,2.90
2022-08-15T02:24:30.966Z,2.67
2022-08-15T02:27:17.928Z,2.22
2022-08-15T02:30:11.535Z,2.58
2022-08-15T02:33:00.096Z,2.78
2022-08-15T02:35:47.092Z,2.55
2022-08-15T02:38:48.144Z,2.40
2022-08-15T02:41:43.142Z,2.05
2022-08-15T02:44:34.041Z,2.43
2022-08-15T02:47:26.017Z,2.03
2022-08-15T02:50:17.232Z,2.33
2022-08-15T02:53:10.907Z,2.22
2022-08-15T02:56:00.201Z,2.87
2022-08-15T02:58:48.023Z,2.95
2022-08-15T03:01:43.312Z,2.58
2022-08-15T03:04:35.584Z,2.35
2022-08-15T03:07:24.544Z,2.93
2022-08-15T03:10:11.417Z,2.20
2022-08-15T03:13:17.770Z,2.58
2022-08-15T03:16:15.164Z,2.90
2022-08-15T03:19:02.408Z,2.67
2022-08-15T03:21:50.569Z,3.33
2022-08-15T03:24:43.944Z,3.22
2022-08-15T03:27:35.405Z,3.13
2022-08-15T03:30:23.400Z,4.20
2022-08-15T03:33:13.403Z,4.80
2022-08-15T03:36:07.149Z,4.40
2022-08-15T03:38:59.719Z,4.60
2022-08-15T03:41:54.896Z,4.05
2022-08-15T03:44:45.171Z,3.90
2022-08-15T03:47:32.683Z,4.00
2022-08-15T03:50:35.306Z,4.13
2022-08-15T03:53:25.202Z,4.50
2022-08-15T03:56:17.850Z,3.73
2022-08-15T03:59:06.418Z,3.47
2022-08-15T04:02:01.070Z,3.97
2022-08-15T04:04:49.409Z,4.03
2022-08-15T04:07:40.819Z,3.85
2022-08-15T04:10:36.648Z,3.40
2022-08-15T04:13:29.584Z,3.95
2022-08-15T04:17:01.697Z,3.17
2022-08-15T04:19:27.680Z,3.83
2022-08-15T04:22:38.982Z,4.38
2022-08-15T04:25:40.623Z,3.30
2022-08-15T04:28:53.698Z,2.67
2022-08-15T04:31:41.486Z,2.67
2022-08-15T04:34:51.923Z,3.65
2022-08-15T04:37:37.602Z,3.10
2022-08-15T04:41:18.821Z,3.50
2022-08-15T04:43:32.516Z,3.05
2022-08-15T04:46:26.212Z,3.83
2022-08-15T04:49:16.565Z,2.92
2022-08-15T04:52:11.665Z,2.92
2022-08-15T04:55:00.141Z,2.80
2022-08-15T04:57:55.436Z,3.38
2022-08-15T05:00:44.053Z,3.50
2022-08-15T05:03:54.245Z,3.25
2022-08-15T05:06:51.618Z,3.00
2022-08-15T05:09:59.659Z,3.25
2022-08-15T05:12:46.962Z,3.85
2022-08-15T05:15:53.926Z,3.83
2022-08-15T05:18:46.345Z,3.30
2022-08-15T05:21:43.743Z,3.53
2022-08-15T05:24:33.653Z,3.35
2022-08-15T05:27:22.817Z,3.00
2022-08-15T05:30:10.258Z,3.70
2022-08-15T05:33:10.468Z,3.38
2022-08-15T05:35:59.235Z,3.70
2022-08-15T05:38:49.002Z,4.03
2022-08-15T05:41:53.238Z,4.03
2022-08-15T05:44:46.044Z,4.15
2022-08-15T05:47:45.047Z,4.35
2022-08-15T05:50:40.461Z,4.15
2022-08-15T05:53:32.818Z,3.70
2022-08-15T05:56:22.457Z,4.38
2022-08-15T05:59:18.093Z,4.28
2022-08-15T06:02:36.645Z,3.92
2022-08-15T06:05:20.096Z,3.65
2022-08-15T06:08:50.256Z,3.78
2022-08-15T06:11:20.646Z,3.95
2022-08-15T06:14:13.979Z,4.20
2022-08-15T06:17:09.125Z,4.57
2022-08-15T06:19:58.796Z,4.82
2022-08-15T06:22:52.151Z,4.32
2022-08-15T06:25:43.337Z,4.65
2022-08-15T06:28:51.837Z,3.73
2022-08-15T06:31:43.816Z,4.88
2022-08-15T06:34:55.514Z,4.82
2022-08-15T06:37:59.315Z,4.63
2022-08-15T06:40:56.574Z,4.78
2022-08-15T06:43:45.385Z,5.25
2022-08-15T06:46:50.557Z,5.00
2022-08-15T06:49:49.140Z,4.63
2022-08-15T06:52:40.300Z,5.10
2022-08-15T06:55:37.537Z,4.90
2022-08-15T06:58:54.803Z,5.10
2022-08-15T07:02:16.428Z,5.15
2022-08-15T07:04:58.770Z,5.40
2022-08-15T07:07:47.390Z,5.07
2022-08-15T07:10:49.320Z,5.45
2022-08-15T07:13:58.347Z,5.60
2022-08-15T07:16:52.089Z,5.43
2022-08-15T07:19:41.234Z,5.37
2022-08-15T07:23:15.881Z,5.78
2022-08-15T07:26:07.111Z,5.95
2022-08-15T07:28:54.075Z,5.68
2022-08-15T07:32:10.808Z,5.45
2022-08-15T07:35:02.077Z,5.68
2022-08-15T07:37:55.987Z,5.88
2022-08-15T07:40:55.854Z,6.07
2022-08-15T07:43:46.311Z,6.25
2022-08-15T07:46:39.514Z,6.57
2022-08-15T07:50:02.570Z,6.30
2022-08-15T07:52:57.381Z,6.25
2022-08-15T07:56:40.417Z,7.07
2022-08-15T07:59:24.182Z,6.45
2022-08-15T08:02:30.230Z,6.33
2022-08-15T08:05:30.891Z,5.65
2022-08-15T08:08:44.454Z,6.63
2022-08-15T08:11:46.590Z,6.90
2022-08-15T08:14:42.048Z,7.32
2022-08-15T08:17:42.840Z,6.53
2022-08-15T08:20:35.827Z,6.50
2022-08-15T08:23:27.711Z,6.00
2022-08-15T08:26:25.901Z,6.50
2022-08-15T08:29:23.685Z,6.13
2022-08-15T08:32:29.353Z,7.20
2022-08-15T08:35:24.311Z,6.72
2022-08-15T08:39:04.000Z,6.53
2022-08-15T08:41:45.947Z,6.87
2022-08-15T08:44:42.740Z,7.40
2022-08-15T08:47:42.742Z,6.32
2022-08-15T08:50:44.957Z,6.63
2022-08-15T08:53:36.439Z,7.25
2022-08-15T08:56:32.265Z,7.20
2022-08-15T08:59:25.519Z,6.93
2022-08-15T09:02:29.131Z,6.22
2022-08-15T09:05:27.613Z,6.40
2022-08-15T09:08:30.027Z,6.10
2022-08-15T09:11:23.874Z,5.80
2022-08-15T09:14:32.618Z,6.70
2022-08-15T09:17:31.251Z,7.03
2022-08-15T09:20:22.242Z,7.33
2022-08-15T09:23:25.953Z,7.20
2022-08-15T09:26:22.863Z,6.63
2022-08-15T09:29:18.801Z,6.78
2022-08-15T09:32:31.078Z,6.15
2022-08-15T09:35:41.460Z,6.75
2022-08-15T09:38:43.025Z,6.30
2022-08-15T09:41:36.320Z,6.00
2022-08-15T09:44:37.721Z,6.93
2022-08-15T09:47:49.295Z,6.93
2022-08-15T09:50:55.560Z,7.47
2022-08-15T09:54:01.692Z,6.80
2022-08-15T09:56:49.433Z,6.88
2022-08-15T09:59:37.734Z,6.60
2022-08-15T10:02:37.744Z,6.85
2022-08-15T10:05:37.873Z,6.40
2022-08-15T10:08:48.326Z,7.82
2022-08-15T10:12:01.583Z,7.43
2022-08-15T10:15:03.011Z,7.57
2022-08-15T10:17:59.041Z,7.85
2022-08-15T10:20:55.198Z,6.93
2022-08-15T10:23:59.382Z,7.65
2022-08-15T10:27:05.333Z,6.93
2022-08-15T10:30:45.486Z,7.25
2022-08-15T10:33:35.502Z,7.57
2022-08-15T10:36:32.473Z,7.35
2022-08-15T10:39:31.686Z,7.60
2022-08-15T10:42:27.104Z,7.83
2022-08-15T10:45:18.790Z,8.32
2022-08-15T10:48:13.216Z,7.67
2022-08-15T10:51:05.435Z,8.40
2022-08-15T10:53:57.772Z,7.95
2022-08-15T10:57:04.599Z,8.30
2022-08-15T10:59:57.249Z,8.30
2022-08-15T11:03:10.226Z,8.02
2022-08-15T11:05:59.391Z,8.05
2022-08-15T11:08:49.759Z,8.43
2022-08-15T11:11:39.445Z,8.00
2022-08-15T11:14:30.266Z,8.57
2022-08-15T11:17:19.807Z,9.15
2022-08-15T11:20:15.907Z,8.63
2022-08-15T11:23:04.679Z,7.80
2022-08-15T11:25:58.626Z,8.73
2022-08-15T11:28:56.598Z,7.78
2022-08-15T11:31:56.249Z,6.90
2022-08-15T11:34:50.660Z,4.60
2022-08-15T11:37:41.621Z,3.83
2022-08-15T11:40:32.193Z,2.97
2022-08-15T11:43:19.712Z,2.10
2022-08-15T11:46:30.194Z,1.90
2022-08-15T11:49:18.217Z,1.95
2022-08-15T11:52:41.603Z,2.28
2022-08-15T11:55:23.765Z,1.77
2022-08-15T11:58:29.974Z,1.73
2022-08-15T12:01:26.041Z,2.10
2022-08-15T12:04:41.564Z,2.13
2022-08-15T12:07:43.981Z,2.20
2022-08-15T12:10:33.694Z,1.77
2022-08-15T12:13:33.677Z,2.00
2022-08-15T12:16:29.367Z,2.15
2022-08-15T12:19:32.418Z,2.25
2022-08-15T12:22:53.176Z,2.40
2022-08-15T12:25:54.645Z,2.40
2022-08-15T12:28:48.792Z,2.03
2022-08-15T12:31:42.860Z,2.30
2022-08-15T12:34:38.478Z,2.20
2022-08-15T12:37:39.448Z,2.22
2022-08-15T12:40:59.347Z,2.20
2022-08-15T12:43:36.634Z,2.35
2022-08-15T12:46:25.821Z,2.00
2022-08-15T12:49:13.965Z,2.13
2022-08-15T12:52:05.050Z,2.25
2022-08-15T12:54:52.753Z,1.35
2022-08-15T12:57:52.603Z,2.10
2022-08-15T13:01:02.122Z,1.98
2022-08-15T13:04:01.768Z,1.40
2022-08-15T13:06:56.002Z,2.40
2022-08-15T13:09:44.787Z,1.70
2022-08-15T13:12:31.577Z,1.70
2022-08-15T13:15:27.834Z,1.27
2022-08-15T13:18:19.808Z,1.13
2022-08-15T13:21:27.613Z,1.10
2022-08-15T13:24:24.950Z,1.50
2022-08-15T13:27:17.482Z,1.52
2022-08-15T13:30:16.981Z,1.75
2022-08-15T13:33:07.322Z,1.45
2022-08-15T13:36:02.007Z,1.60
2022-08-15T13:38:53.973Z,1.83
2022-08-15T13:41:48.585Z,1.60
2022-08-15T13:44:49.652Z,1.50
2022-08-15T13:47:47.121Z,1.20
2022-08-15T13:50:43.541Z,1.60
2022-08-15T13:53:45.912Z,1.33
2022-08-15T13:56:38.948Z,1.90
2022-08-15T13:59:32.329Z,1.50
2022-08-15T14:02:32.617Z,1.38
2022-08-15T14:05:23.880Z,1.67
2022-08-15T14:08:27.401Z,1.50
2022-08-15T14:11:15.883Z,1.65
2022-08-15T14:14:36.281Z,1.70
2022-08-15T14:17:25.034Z,1.80
2022-08-15T14:20:26.473Z,1.90
2022-08-15T14:23:14.922Z,1.55
2022-08-15T14:27:04.635Z,1.90
2022-08-15T14:29:33.750Z,1.75
2022-08-15T14:35:42.798Z,2.45
2022-08-15T14:38:30.897Z,2.10
2022-08-15T14:41:17.785Z,2.35
2022-08-15T14:44:06.313Z,2.13
2022-08-15T14:46:53.474Z,2.33
2022-08-15T14:50:53.417Z,2.05
2022-08-15T14:52:53.290Z,2.33
2022-08-15T14:55:41.680Z,2.10
2022-08-15T14:58:34.769Z,2.10
2022-08-15T15:01:29.704Z,2.85
2022-08-15T15:04:20.754Z,2.55
2022-08-15T15:07:21.730Z,2.28
2022-08-15T15:10:10.405Z,2.08
2022-08-15T15:13:12.666Z,2.60
2022-08-15T15:16:40.407Z,2.78
2022-08-15T15:19:10.399Z,2.38
2022-08-15T15:21:57.628Z,2.35
2022-08-15T15:24:48.209Z,2.25
2022-08-15T15:27:58.415Z,2.70
2022-08-15T15:30:46.401Z,2.30
2022-08-15T15:33:35.829Z,1.85
2022-08-15T15:36:28.966Z,2.20
2022-08-15T15:39:18.861Z,2.90
2022-08-15T15:42:31.474Z,2.92
2022-08-15T15:45:20.794Z,2.80
2022-08-15T15:48:10.402Z,2.10
2022-08-15T15:51:16.772Z,3.08
2022-08-15T15:54:36.184Z,1.98
2022-08-15T15:57:10.786Z,2.40
2022-08-15T16:00:27.032Z,2.70
2022-08-15T16:03:07.226Z,2.72
2022-08-15T16:06:03.058Z,2.60
2022-08-15T16:09:03.701Z,2.60
2022-08-15T16:12:58.886Z,2.72
2022-08-15T16:15:08.105Z,2.80
2022-08-15T16:17:57.172Z,2.20
2022-08-15T16:20:46.292Z,2.15
2022-08-15T16:23:48.177Z,2.45
2022-08-15T16:26:38.081Z,2.35
2022-08-15T16:29:44.698Z,2.20
2022-08-15T16:32:44.534Z,2.35
2022-08-15T16:35:37.292Z,2.95
2022-08-15T16:39:03.355Z,2.88
2022-08-15T16:41:38.263Z,2.33
2022-08-15T16:44:32.475Z,3.50
2022-08-15T16:47:27.885Z,3.08
2022-08-15T16:50:21.561Z,3.25
2022-08-15T16:53:12.945Z,3.33
2022-08-15T16:56:10.543Z,3.17
2022-08-15T16:59:23.205Z,3.55
2022-08-15T17:03:04.277Z,4.53
2022-08-15T17:05:36.971Z,3.67
2022-08-15T17:08:28.348Z,4.00
2022-08-15T17:11:17.484Z,3.65
2022-08-15T17:14:48.417Z,3.88
2022-08-15T17:17:26.904Z,3.72
2022-08-15T17:20:21.892Z,3.72
2022-08-15T17:23:20.898Z,3.97
2022-08-15T17:27:03.627Z,3.50
2022-08-15T17:29:28.201Z,4.13
2022-08-15T17:32:18.645Z,3.65
2022-08-15T17:35:05.726Z,4.20
2022-08-15T17:37:53.864Z,3.95
2022-08-15T17:40:44.947Z,4.07
2022-08-15T17:43:33.644Z,3.70
2022-08-15T17:46:22.686Z,3.73
2022-08-15T17:49:12.377Z,3.90
2022-08-15T17:52:06.467Z,4.20
2022-08-15T17:54:57.372Z,3.90
2022-08-15T17:58:09.225Z,3.35
2022-08-15T18:00:59.636Z,4.03
2022-08-15T18:03:47.885Z,4.00
2022-08-15T18:06:35.231Z,5.78
2022-08-15T18:10:30.678Z,4.20
2022-08-15T18:12:31.864Z,3.42
2022-08-15T18:15:24.160Z,4.20
2022-08-15T18:18:21.098Z,3.88
2022-08-15T18:21:12.152Z,3.75
2022-08-15T18:23:59.731Z,3.43
2022-08-15T18:27:09.090Z,3.40
2022-08-15T18:30:00.001Z,3.72
2022-08-15T18:32:52.032Z,3.58
2022-08-15T18:35:40.729Z,3.80
2022-08-15T18:38:31.472Z,3.70
2022-08-15T18:41:28.151Z,3.10
2022-08-15T18:44:21.521Z,3.65
2022-08-15T18:47:29.707Z,3.70
2022-08-15T18:50:44.239Z,3.17
2022-08-15T18:53:27.796Z,4.05
2022-08-15T18:56:25.608Z,3.50
2022-08-15T18:59:18.424Z,3.30
2022-08-15T19:02:23.886Z,3.25
2022-08-15T19:05:13.928Z,3.22
2022-08-15T19:08:14.818Z,3.03
2022-08-15T19:11:20.707Z,3.42
2022-08-15T19:14:12.841Z,3.53
2022-08-15T19:17:16.975Z,3.97
2022-08-15T19:20:26.033Z,3.55
2022-08-15T19:23:15.838Z,3.28
2022-08-15T19:26:26.077Z,3.83
2022-08-15T19:29:33.579Z,3.33
2022-08-15T19:32:30.885Z,3.60
2022-08-15T19:35:21.142Z,3.78
2022-08-15T19:38:16.886Z,3.55
2022-08-15T19:41:09.529Z,3.05
2022-08-15T19:44:07.357Z,3.35
2022-08-15T19:46:57.854Z,3.92
2022-08-15T19:50:20.545Z,3.30
2022-08-15T19:53:21.035Z,4.00
2022-08-15T19:56:10.954Z,3.03
2022-08-15T19:59:04.107Z,3.83
2022-08-15T20:01:54.408Z,3.33
2022-08-15T20:04:57.366Z,4.00
2022-08-15T20:07:49.219Z,3.67
2022-08-15T20:10:43.500Z,3.10
2022-08-15T20:14:01.099Z,3.90
2022-08-15T20:16:55.503Z,3.30
2022-08-15T20:20:01.631Z,3.38
2022-08-15T20:22:56.590Z,3.65
2022-08-15T20:25:45.326Z,3.03
2022-08-15T20:28:37.695Z,4.28
2022-08-15T20:31:33.634Z,3.28
2022-08-15T20:34:57.451Z,4.20
2022-08-15T20:37:49.820Z,4.72
2022-08-15T20:40:43.041Z,4.20
2022-08-15T20:43:39.993Z,3.60
2022-08-15T20:46:28.731Z,3.63
2022-08-15T20:49:18.051Z,3.05
2022-08-15T20:52:57.022Z,3.28
2022-08-15T20:55:14.841Z,2.78
2022-08-15T20:58:06.109Z,2.70
2022-08-15T21:01:16.886Z,2.72
2022-08-15T21:04:27.556Z,3.97
2022-08-15T21:07:14.760Z,3.20
2022-08-15T21:10:05.889Z,3.58
2022-08-15T21:12:57.020Z,3.75
2022-08-15T21:16:06.142Z,4.10
2022-08-15T21:19:01.002Z,4.40
2022-08-15T21:21:47.844Z,4.03
2022-08-15T21:24:43.055Z,3.45
2022-08-15T21:27:41.442Z,5.13
2022-08-15T21:30:59.588Z,4.78
2022-08-15T21:34:06.393Z,4.03
2022-08-15T21:37:36.028Z,3.83
2022-08-15T21:40:56.129Z,4.63
2022-08-15T21:44:07.726Z,3.42
2022-08-15T21:47:04.207Z,4.28
2022-08-15T21:50:03.189Z,4.55
2022-08-15T21:52:51.855Z,5.03
2022-08-15T21:55:48.257Z,5.03
2022-08-15T21:59:01.065Z,4.38
2022-08-15T22:02:04.764Z,5.13
2022-08-15T22:04:52.066Z,4.90
2022-08-15T22:07:43.782Z,5.37
2022-08-15T22:10:51.802Z,5.72
2022-08-15T22:13:38.536Z,5.97
2022-08-15T22:16:37.950Z,6.35
2022-08-15T22:19:26.550Z,5.95
2022-08-15T22:22:19.338Z,5.70
2022-08-15T22:25:08.740Z,5.05
2022-08-15T22:27:55.614Z,5.60
2022-08-15T22:30:44.316Z,5.60
2022-08-15T22:33:37.374Z,5.55
2022-08-15T22:36:24.476Z,5.55
2022-08-15T22:39:14.177Z,5.38
2022-08-15T22:42:04.917Z,4.97
2022-08-15T22:44:52.500Z,5.43
2022-08-15T22:47:39.424Z,4.90
2022-08-15T22:50:33.397Z,5.32
2022-08-15T22:53:20.413Z,6.00
2022-08-15T22:56:46.230Z,6.10
2022-08-15T22:59:18.392Z,5.97
2022-08-15T23:02:18.508Z,5.55
2022-08-15T23:05:12.274Z,4.85
2022-08-15T23:08:01.012Z,5.22
2022-08-15T23:10:53.407Z,5.38
2022-08-15T23:13:59.334Z,5.97
2022-08-15T23:17:00.306Z,5.05
2022-08-15T23:20:01.055Z,5.00
2022-08-15T23:22:48.149Z,5.67
2022-08-15T23:25:49.596Z,4.60
2022-08-15T23:28:46.265Z,5.38
2022-08-15T23:31:48.951Z,5.55
2022-08-15T23:34:43.624Z,5.97
2022-08-15T23:37:32.980Z,5.28
2022-08-15T23:40:27.204Z,4.93
2022-08-15T23:43:15.950Z,5.53
2022-08-15T23:46:37.102Z,5.78
2022-08-15T23:49:10.746Z,5.43
2022-08-15T23:51:59.482Z,5.72
2022-08-15T23:54:46.568Z,5.57
2022-08-15T23:57:35.578Z,6.60
